createdAt,value
2018-03-09T00:01:09.524Z,0.80
2018-03-09T00:03:37.544Z,1.08
2018-03-09T00:06:06.320Z,0.80
2018-03-09T00:08:35.280Z,0.80
2018-03-09T00:11:03.312Z,1.15
2018-03-09T00:13:31.323Z,1.30
2018-03-09T00:16:02.548Z,0.90
2018-03-09T00:18:30.567Z,1.15
2018-03-09T00:20:59.515Z,0.90
2018-03-09T00:23:27.528Z,0.90
2018-03-09T00:25:55.536Z,1.00
2018-03-09T00:28:24.464Z,0.70
2018-03-09T00:30:52.472Z,1.25
2018-03-09T00:33:24.267Z,0.80
2018-03-09T00:35:52.283Z,1.65
2018-03-09T00:38:22.980Z,0.90
2018-03-09T00:40:50.992Z,0.88
2018-03-09T00:43:19.764Z,2.65
2018-03-09T00:45:47.771Z,2.05
2018-03-09T00:48:16.715Z,1.45
2018-03-09T00:50:44.732Z,1.80
2018-03-09T00:53:12.723Z,2.65
2018-03-09T00:55:41.732Z,1.17
2018-03-09T00:58:10.725Z,2.08
2018-03-09T01:00:42.060Z,1.35
2018-03-09T01:03:10.096Z,1.12
2018-03-09T01:05:38.111Z,0.70
2018-03-09T01:08:12.908Z,0.90
2018-03-09T01:10:40.912Z,1.25
2018-03-09T01:13:08.932Z,0.88
2018-03-09T01:15:39.767Z,0.75
2018-03-09T01:18:08.691Z,3.12
2018-03-09T01:20:37.717Z,1.17
2018-03-09T01:23:05.692Z,2.30
2018-03-09T01:25:33.703Z,4.45
2018-03-09T01:28:01.707Z,1.00
2018-03-09T01:30:30.690Z,0.80
2018-03-09T01:32:59.678Z,1.05
2018-03-09T01:35:28.695Z,0.88
2018-03-09T01:38:00.336Z,0.70
2018-03-09T01:40:31.791Z,0.75
2018-03-09T01:43:00.783Z,9.65
2018-03-09T01:45:30.782Z,0.80
2018-03-09T01:47:58.783Z,0.80
2018-03-09T01:50:28.803Z,0.90
2018-03-09T01:52:56.771Z,0.93
2018-03-09T01:55:25.566Z,0.88
2018-03-09T01:57:57.793Z,0.70
2018-03-09T02:00:27.726Z,0.80
2018-03-09T02:02:56.705Z,0.82
2018-03-09T02:05:31.613Z,0.70
2018-03-09T02:07:59.606Z,1.20
2018-03-09T02:10:29.599Z,0.85
2018-03-09T02:13:01.491Z,3.65
2018-03-09T02:15:33.138Z,0.77
2018-03-09T02:18:02.143Z,2.45
2018-03-09T02:20:35.634Z,0.75
2018-03-09T02:23:03.894Z,1.90
2018-03-09T02:25:35.967Z,0.70
2018-03-09T02:28:08.847Z,0.73
2018-03-09T02:30:44.354Z,3.42
2018-03-09T02:33:18.086Z,0.82
2018-03-09T02:35:48.016Z,0.70
2018-03-09T02:38:21.723Z,1.35
2018-03-09T02:41:00.194Z,1.80
2018-03-09T02:43:30.151Z,0.80
2018-03-09T02:45:58.171Z,1.40
2018-03-09T02:48:32.279Z,1.80
2018-03-09T02:51:04.391Z,1.98
2018-03-09T02:53:32.395Z,0.88
2018-03-09T02:56:00.426Z,3.60
2018-03-09T02:58:33.342Z,1.92
2018-03-09T03:01:03.098Z,0.95
2018-03-09T03:03:36.724Z,1.20
2018-03-09T03:06:04.720Z,0.98
2018-03-09T03:08:34.699Z,0.68
2018-03-09T03:11:09.395Z,1.73
2018-03-09T03:13:45.159Z,1.60
2018-03-09T03:16:16.135Z,0.80
2018-03-09T03:18:44.131Z,1.02
2018-03-09T03:21:13.927Z,0.90
2018-03-09T03:23:42.907Z,1.05
2018-03-09T03:26:10.922Z,0.80
2018-03-09T03:28:39.687Z,0.88
2018-03-09T03:31:10.387Z,1.98
2018-03-09T03:33:45.406Z,0.90
2018-03-09T03:36:17.383Z,0.90
2018-03-09T03:38:46.387Z,0.75
2018-03-09T03:41:20.355Z,3.42
2018-03-09T03:43:49.415Z,3.15
2018-03-09T03:46:20.127Z,0.85
2018-03-09T03:48:48.139Z,0.70
2018-03-09T03:51:24.326Z,0.80
2018-03-09T03:53:52.335Z,0.90
2018-03-09T03:56:20.339Z,1.45
2018-03-09T03:58:54.781Z,0.70
2018-03-09T04:01:22.799Z,5.07
2018-03-09T04:03:53.427Z,3.28
2018-03-09T04:06:27.511Z,2.28
2018-03-09T04:09:01.219Z,1.10
2018-03-09T04:11:29.251Z,1.45
2018-03-09T04:14:00.535Z,1.60
2018-03-09T04:16:36.991Z,2.15
2018-03-09T04:19:09.999Z,0.68
2018-03-09T04:21:38.043Z,1.12
2018-03-09T04:24:06.063Z,1.27
2018-03-09T04:26:35.831Z,2.53
2018-03-09T04:29:03.831Z,2.97
2018-03-09T04:31:32.867Z,2.30
2018-03-09T04:34:03.611Z,2.40
2018-03-09T04:36:33.547Z,1.15
2018-03-09T04:39:03.567Z,2.35
2018-03-09T04:41:41.823Z,1.00
2018-03-09T04:44:10.759Z,1.17
2018-03-09T04:46:38.775Z,1.00
2018-03-09T04:49:14.250Z,2.80
2018-03-09T04:51:42.254Z,2.72
2018-03-09T04:54:17.651Z,0.80
2018-03-09T04:56:48.420Z,1.17
2018-03-09T04:59:17.427Z,3.00
2018-03-09T05:01:46.411Z,1.58
2018-03-09T05:04:14.406Z,1.35
2018-03-09T05:06:43.202Z,1.27
2018-03-09T05:09:11.195Z,1.30
2018-03-09T05:11:39.198Z,1.40
2018-03-09T05:14:07.891Z,2.75
2018-03-09T05:16:45.539Z,1.00
2018-03-09T05:19:15.491Z,1.00
2018-03-09T05:21:44.495Z,1.20
2018-03-09T05:24:22.881Z,1.02
2018-03-09T05:26:57.578Z,1.15
2018-03-09T05:29:27.518Z,1.20
2018-03-09T05:31:55.522Z,1.30
2018-03-09T05:34:24.475Z,2.67
2018-03-09T05:36:58.475Z,2.20
2018-03-09T05:39:30.602Z,1.30
2018-03-09T05:42:00.387Z,1.65
2018-03-09T05:44:38.850Z,2.10
2018-03-09T05:47:09.931Z,1.73
2018-03-09T05:49:37.941Z,2.10
2018-03-09T05:52:08.622Z,2.62
2018-03-09T05:54:50.562Z,4.18
2018-03-09T05:57:19.534Z,7.70
2018-03-09T05:59:55.047Z,5.10
2018-03-09T06:02:26.094Z,6.65
2018-03-09T06:04:57.758Z,5.85
2018-03-09T06:07:25.762Z,5.05
2018-03-09T06:09:53.753Z,3.28
2018-03-09T06:12:21.769Z,3.75
2018-03-09T06:14:49.778Z,4.20
2018-03-09T06:17:20.463Z,5.82
2018-03-09T06:19:48.458Z,1.73
2018-03-09T06:22:18.378Z,2.53
2018-03-09T06:24:46.389Z,6.82
2018-03-09T06:27:14.397Z,5.85
2018-03-09T06:29:45.826Z,3.03
2018-03-09T06:32:31.154Z,1.80
2018-03-09T06:35:03.590Z,1.50
2018-03-09T06:37:37.974Z,1.50
2018-03-09T06:40:05.978Z,1.73
2018-03-09T06:42:33.969Z,6.90
2018-03-09T06:45:01.966Z,1.83
2018-03-09T06:47:30.730Z,1.60
2018-03-09T06:50:01.850Z,1.58
2018-03-09T06:52:31.857Z,1.40
2018-03-09T06:54:59.866Z,1.48
2018-03-09T06:57:30.561Z,2.20
2018-03-09T06:59:58.561Z,2.62
2018-03-09T07:02:28.328Z,4.28
2018-03-09T07:05:00.401Z,2.65
2018-03-09T07:07:33.274Z,2.42
2018-03-09T07:10:01.294Z,2.90
2018-03-09T07:12:34.857Z,2.42
2018-03-09T07:15:04.897Z,2.53
2018-03-09T07:17:41.637Z,2.78
2018-03-09T07:20:11.562Z,2.03
2018-03-09T07:22:56.258Z,2.92
2018-03-09T07:25:26.056Z,2.65
2018-03-09T07:27:54.061Z,2.17
2018-03-09T07:30:24.009Z,4.40
2018-03-09T07:32:52.033Z,2.47
2018-03-09T07:35:20.805Z,2.58
2018-03-09T07:37:55.500Z,2.92
2018-03-09T07:40:43.223Z,2.22
2018-03-09T07:43:14.769Z,3.40
2018-03-09T07:45:44.727Z,4.97
2018-03-09T07:48:12.700Z,1.98
2018-03-09T07:50:42.465Z,3.05
2018-03-09T07:53:12.504Z,2.10
2018-03-09T07:55:41.477Z,2.00
2018-03-09T07:58:13.232Z,2.75
2018-03-09T08:00:42.233Z,2.45
2018-03-09T08:03:11.217Z,1.83
2018-03-09T08:05:40.117Z,3.20
2018-03-09T08:08:11.960Z,2.58
2018-03-09T08:10:45.657Z,4.28
2018-03-09T08:13:13.656Z,2.75
2018-03-09T08:15:45.085Z,3.22
2018-03-09T08:18:23.725Z,2.75
2018-03-09T08:20:57.892Z,2.22
2018-03-09T08:23:39.787Z,2.17
2018-03-09T08:26:07.864Z,1.98
2018-03-09T08:28:35.845Z,2.95
2018-03-09T08:31:05.808Z,2.28
2018-03-09T08:33:45.549Z,2.87
2018-03-09T08:36:17.924Z,2.92
2018-03-09T08:39:00.089Z,2.58
2018-03-09T08:41:32.245Z,1.85
2018-03-09T08:44:00.261Z,3.15
2018-03-09T08:46:42.268Z,2.47
2018-03-09T08:49:12.173Z,1.70
2018-03-09T08:51:41.060Z,2.92
2018-03-09T08:54:16.194Z,4.37
2018-03-09T08:56:45.150Z,1.80
2018-03-09T08:59:14.140Z,3.40
2018-03-09T09:01:42.144Z,1.95
2018-03-09T09:04:10.153Z,1.80
2018-03-09T09:06:43.468Z,3.42
2018-03-09T09:09:16.153Z,2.03
2018-03-09T09:11:46.073Z,1.90
2018-03-09T09:14:14.076Z,2.35
2018-03-09T09:16:44.765Z,1.98
2018-03-09T09:19:16.005Z,1.67
2018-03-09T09:21:44.021Z,2.30
2018-03-09T09:24:16.312Z,3.50
2018-03-09T09:26:44.313Z,2.95
2018-03-09T09:29:19.541Z,1.70
2018-03-09T09:31:52.645Z,2.15
2018-03-09T09:34:22.538Z,1.70
2018-03-09T09:37:07.576Z,2.00
2018-03-09T09:39:39.689Z,2.20
2018-03-09T09:42:07.700Z,2.65
2018-03-09T09:44:35.697Z,3.00
2018-03-09T09:47:03.700Z,2.22
2018-03-09T09:49:31.704Z,3.70
2018-03-09T09:52:00.604Z,2.92
2018-03-09T09:54:29.376Z,4.45
2018-03-09T09:56:58.196Z,3.65
2018-03-09T09:59:32.936Z,3.05
2018-03-09T10:02:03.592Z,2.75
2018-03-09T10:04:31.599Z,2.87
2018-03-09T10:07:08.620Z,3.00
2018-03-09T10:09:45.412Z,2.65
2018-03-09T10:12:26.708Z,5.70
2018-03-09T10:14:59.884Z,2.45
2018-03-09T10:17:36.332Z,3.03
2018-03-09T10:20:04.337Z,3.08
2018-03-09T10:22:32.336Z,2.72
2018-03-09T10:25:03.024Z,3.67
2018-03-09T10:27:35.576Z,2.30
2018-03-09T10:30:04.464Z,2.92
2018-03-09T10:32:40.520Z,2.05
2018-03-09T10:35:08.512Z,2.40
2018-03-09T10:37:43.220Z,2.97
2018-03-09T10:40:13.128Z,3.92
2018-03-09T10:42:41.892Z,2.65
2018-03-09T10:45:10.652Z,5.65
2018-03-09T10:47:40.368Z,3.50
2018-03-09T10:50:14.648Z,2.50
2018-03-09T10:52:44.576Z,3.85
2018-03-09T10:55:12.576Z,4.18
2018-03-09T10:57:44.204Z,2.53
2018-03-09T11:03:12.768Z,2.75
2018-03-09T11:05:40.763Z,3.05
2018-03-09T11:08:10.684Z,2.03
2018-03-09T11:10:39.220Z,2.60
2018-03-09T11:13:07.337Z,2.53
2018-03-09T11:15:35.544Z,2.70
2018-03-09T11:18:04.824Z,3.78
2018-03-09T11:20:36.563Z,2.33
2018-03-09T11:23:06.791Z,3.97
2018-03-09T11:25:44.840Z,3.70
2018-03-09T11:28:14.112Z,2.40
2018-03-09T11:30:42.344Z,5.75
2018-03-09T11:33:17.728Z,4.32
2018-03-09T11:35:45.703Z,6.22
2018-03-09T11:38:13.703Z,2.87
2018-03-09T11:40:41.711Z,2.75
2018-03-09T11:43:09.715Z,3.30
2018-03-09T11:45:38.492Z,2.87
2018-03-09T11:48:09.508Z,4.00
2018-03-09T11:50:38.496Z,4.07
2018-03-09T11:53:14.599Z,3.50
2018-03-09T11:55:44.274Z,5.97
2018-03-09T11:58:12.256Z,4.12
2018-03-09T12:00:44.307Z,4.00
2018-03-09T12:03:12.316Z,4.60
2018-03-09T12:05:45.552Z,3.83
2018-03-09T12:08:16.573Z,3.85
2018-03-09T12:10:44.535Z,4.30
2018-03-09T12:13:15.743Z,4.28
2018-03-09T12:15:44.711Z,4.40
2018-03-09T12:18:30.632Z,4.18
2018-03-09T12:21:01.327Z,3.65
2018-03-09T12:23:29.331Z,5.43
2018-03-09T12:25:58.115Z,5.78
2018-03-09T12:28:32.355Z,4.35
2018-03-09T12:31:00.378Z,4.82
2018-03-09T12:33:28.435Z,4.20
2018-03-09T12:35:57.432Z,4.30
2018-03-09T12:38:26.412Z,11.12
2018-03-09T12:40:54.431Z,4.85
2018-03-09T12:43:25.128Z,3.90
2018-03-09T12:45:53.131Z,5.68
2018-03-09T12:48:34.331Z,6.55
2018-03-09T12:51:14.799Z,4.90
2018-03-09T12:53:44.747Z,6.22
2018-03-09T12:56:14.779Z,4.05
2018-03-09T12:58:43.760Z,4.65
2018-03-09T13:01:13.774Z,4.68
2018-03-09T13:03:42.683Z,4.95
2018-03-09T13:06:14.528Z,5.03
2018-03-09T13:08:46.447Z,4.62
2018-03-09T13:11:23.114Z,4.32
2018-03-09T13:16:53.408Z,5.90
2018-03-09T13:19:21.426Z,7.30
2018-03-09T13:21:56.787Z,4.20
2018-03-09T13:24:24.847Z,4.87
2018-03-09T13:26:52.815Z,6.10
2018-03-09T13:29:20.838Z,4.10
2018-03-09T13:31:49.815Z,5.37
2018-03-09T13:34:17.807Z,5.07
2018-03-09T13:36:46.595Z,11.63
2018-03-09T13:39:17.295Z,5.30
2018-03-09T13:41:45.330Z,3.80
2018-03-09T13:44:14.263Z,5.43
2018-03-09T13:46:42.274Z,5.00
2018-03-09T13:49:10.303Z,4.83
2018-03-09T13:51:40.314Z,5.47
2018-03-09T13:54:10.319Z,5.05
2018-03-09T13:56:43.118Z,4.90
2018-03-09T13:59:28.235Z,5.15
2018-03-09T14:01:59.611Z,4.72
2018-03-09T14:04:35.143Z,4.47
2018-03-09T14:07:03.167Z,5.82
2018-03-09T14:09:33.975Z,6.15
2018-03-09T14:12:08.180Z,8.65
2018-03-09T14:14:43.852Z,7.85
2018-03-09T14:17:12.833Z,4.05
2018-03-09T14:19:44.183Z,4.60
2018-03-09T14:22:13.382Z,3.10
2018-03-09T14:24:43.687Z,3.40
2018-03-09T14:27:13.875Z,7.68
2018-03-09T14:29:45.305Z,5.20
2018-03-09T14:32:25.655Z,5.07
2018-03-09T14:34:55.862Z,3.87
2018-03-09T14:37:26.007Z,5.32
2018-03-09T14:39:59.355Z,6.93
2018-03-09T14:42:37.919Z,6.25
2018-03-09T14:45:07.063Z,4.05
2018-03-09T14:47:43.695Z,3.53
2018-03-09T14:50:12.835Z,3.50
2018-03-09T14:52:40.948Z,6.87
2018-03-09T14:55:14.263Z,6.25
2018-03-09T14:57:43.203Z,5.47
2018-03-09T15:00:11.299Z,5.50
2018-03-09T15:02:45.238Z,6.60
2018-03-09T15:05:18.779Z,4.90
2018-03-09T15:07:48.282Z,6.75
2018-03-09T15:10:27.119Z,5.60
2018-03-09T15:13:04.236Z,3.78
2018-03-09T15:15:34.219Z,5.30
2018-03-09T15:18:02.234Z,4.93
2018-03-09T15:20:31.163Z,4.32
2018-03-09T15:23:18.451Z,5.80
2018-03-09T15:25:47.386Z,5.25
2018-03-09T15:28:15.390Z,4.47
2018-03-09T15:30:44.334Z,5.53
2018-03-09T15:33:22.825Z,13.13
2018-03-09T15:35:57.850Z,10.20
2018-03-09T15:38:27.654Z,5.12
2018-03-09T15:40:58.842Z,6.00
2018-03-09T15:43:26.842Z,5.62
2018-03-09T15:46:02.010Z,13.85
2018-03-09T15:48:31.949Z,17.52
2018-03-09T15:51:04.666Z,15.40
2018-03-09T15:53:32.666Z,22.13
2018-03-09T15:56:01.766Z,10.18
2018-03-09T15:58:40.627Z,9.35
2018-03-09T16:01:20.373Z,10.88
2018-03-09T16:03:48.385Z,11.35
2018-03-09T16:06:17.161Z,8.98
2018-03-09T16:08:45.925Z,8.88
2018-03-09T16:11:13.961Z,10.40
2018-03-09T16:13:42.877Z,12.57
2018-03-09T16:16:14.009Z,8.57
2018-03-09T16:18:43.065Z,14.02
2018-03-09T16:21:11.205Z,12.35
2018-03-09T16:23:39.201Z,16.30
2018-03-09T16:26:08.869Z,12.98
2018-03-09T16:28:36.869Z,10.90
2018-03-09T16:31:05.649Z,13.02
2018-03-09T16:33:38.593Z,13.93
2018-03-09T16:36:12.265Z,9.02
2018-03-09T16:38:41.157Z,10.32
2018-03-09T16:41:09.169Z,11.35
2018-03-09T16:43:39.068Z,9.05
2018-03-09T16:46:08.984Z,11.27
2018-03-09T16:48:42.729Z,8.27
2018-03-09T16:51:16.376Z,8.77
2018-03-09T16:53:45.161Z,9.77
2018-03-09T16:56:13.166Z,9.75
2018-03-09T16:58:43.061Z,9.45
2018-03-09T17:01:11.956Z,9.30
2018-03-09T17:03:39.964Z,10.40
2018-03-09T17:06:15.539Z,13.82
2018-03-09T17:08:43.544Z,15.65
2018-03-09T17:11:11.632Z,9.32
2018-03-09T17:13:46.360Z,11.82
2018-03-09T17:16:15.312Z,12.32
2018-03-09T17:18:43.317Z,8.82
2018-03-09T17:21:11.332Z,11.48
2018-03-09T17:23:40.252Z,13.48
2018-03-09T17:26:08.271Z,15.07
2018-03-09T17:28:40.288Z,17.25
2018-03-09T17:31:09.336Z,19.77
2018-03-09T17:33:37.356Z,17.45
2018-03-09T17:36:09.504Z,15.02
2018-03-09T17:38:37.512Z,24.70
2018-03-09T17:41:05.516Z,18.85
2018-03-09T17:43:34.445Z,14.93
2018-03-09T17:46:02.475Z,17.17
2018-03-09T17:48:30.556Z,19.35
2018-03-09T17:50:58.688Z,20.10
2018-03-09T17:53:26.700Z,20.62
2018-03-09T17:55:54.703Z,18.05
2018-03-09T17:58:22.712Z,22.70
2018-03-09T18:00:52.424Z,21.45
2018-03-09T18:03:28.428Z,22.60
2018-03-09T18:05:57.548Z,26.50
2018-03-09T18:08:29.304Z,21.23
2018-03-09T18:11:02.168Z,19.23
2018-03-09T18:13:36.544Z,21.15
2018-03-09T18:16:09.568Z,19.92
2018-03-09T18:18:42.480Z,19.42
2018-03-09T18:21:16.768Z,15.52
2018-03-09T18:23:44.804Z,18.70
2018-03-09T18:26:12.816Z,20.02
2018-03-09T18:28:40.840Z,18.65
2018-03-09T18:31:08.844Z,18.73
2018-03-09T18:33:36.868Z,19.48
2018-03-09T18:36:14.004Z,22.75
2018-03-09T18:38:42.924Z,21.48
2018-03-09T18:41:12.921Z,18.95
2018-03-09T18:43:40.924Z,28.00
2018-03-09T18:46:20.312Z,19.40
2018-03-09T18:48:48.320Z,24.10
2018-03-09T18:51:22.020Z,14.70
2018-03-09T18:53:50.796Z,16.95
2018-03-09T18:56:42.660Z,14.48
2018-03-09T18:59:15.588Z,16.00
2018-03-09T19:01:43.613Z,19.17
2018-03-09T19:04:11.628Z,25.17
2018-03-09T19:06:43.173Z,20.70
2018-03-09T19:09:11.188Z,15.52
2018-03-09T19:11:41.885Z,16.92
2018-03-09T19:14:10.198Z,17.95
2018-03-09T19:16:39.881Z,20.77
2018-03-09T19:19:07.901Z,17.75
2018-03-09T19:21:35.918Z,15.48
2018-03-09T19:24:05.910Z,18.15
2018-03-09T19:26:37.269Z,16.65
2018-03-09T19:29:06.252Z,18.87
2018-03-09T19:31:35.290Z,16.52
2018-03-09T19:34:04.249Z,15.77
2018-03-09T19:36:32.468Z,17.67
2018-03-09T19:39:01.382Z,17.65
2018-03-09T19:41:33.693Z,15.80
2018-03-09T19:44:03.617Z,17.58
2018-03-09T19:46:36.169Z,18.65
2018-03-09T19:49:04.192Z,21.37
2018-03-09T19:51:32.201Z,19.08
2018-03-09T19:54:01.201Z,16.17
2018-03-09T19:56:30.116Z,15.90
2018-03-09T19:59:01.849Z,19.30
2018-03-09T20:01:31.889Z,24.67
2018-03-09T20:04:03.104Z,20.55
2018-03-09T20:06:32.017Z,14.05
2018-03-09T20:09:00.025Z,15.25
2018-03-09T20:11:28.065Z,14.65
2018-03-09T20:13:57.025Z,15.80
2018-03-09T20:16:26.017Z,16.92
2018-03-09T20:18:54.033Z,15.52
2018-03-09T20:21:23.837Z,19.70
2018-03-09T20:23:56.197Z,14.90
2018-03-09T20:26:24.305Z,14.98
2018-03-09T20:28:52.313Z,15.82
2018-03-09T20:31:31.545Z,18.50
2018-03-09T20:33:59.569Z,14.15
2018-03-09T20:36:29.320Z,34.30
2018-03-09T20:38:58.317Z,14.85
2018-03-09T20:41:27.329Z,14.77
2018-03-09T20:43:56.358Z,17.40
2018-03-09T20:46:28.673Z,20.67
2018-03-09T20:48:57.677Z,16.52
2018-03-09T20:51:25.677Z,14.25
2018-03-09T20:53:56.364Z,18.50
2018-03-09T20:56:24.392Z,16.50
2018-03-09T20:58:52.412Z,20.00
2018-03-09T21:01:22.457Z,17.60
2018-03-09T21:03:50.496Z,14.32
2018-03-09T21:06:18.488Z,18.67
2018-03-09T21:08:46.628Z,15.68
2018-03-09T21:11:15.642Z,19.10
2018-03-09T21:13:43.706Z,20.12
2018-03-09T21:16:12.705Z,16.50
2018-03-09T21:18:40.725Z,17.00
2018-03-09T21:21:09.649Z,19.20
2018-03-09T21:23:38.634Z,14.75
2018-03-09T21:26:06.864Z,16.65
2018-03-09T21:28:35.674Z,16.05
2018-03-09T21:31:03.681Z,14.77
2018-03-09T21:33:31.696Z,18.80
2018-03-09T21:35:59.872Z,18.75
2018-03-09T21:38:32.401Z,17.08
2018-03-09T21:41:02.421Z,22.98
2018-03-09T21:43:30.433Z,16.58
2018-03-09T21:45:58.460Z,16.60
2018-03-09T21:48:26.468Z,17.62
2018-03-09T21:50:55.242Z,18.77
2018-03-09T21:53:25.987Z,19.15
2018-03-09T21:55:53.964Z,21.85
2018-03-09T21:58:21.988Z,22.17
2018-03-09T22:00:50.971Z,20.35
2018-03-09T22:03:18.979Z,15.93
2018-03-09T22:05:47.767Z,18.08
2018-03-09T22:08:21.275Z,21.67
2018-03-09T22:10:50.972Z,17.62
2018-03-09T22:13:19.740Z,18.20
2018-03-09T22:15:47.760Z,20.02
2018-03-09T22:18:16.792Z,15.90
2018-03-09T22:20:49.723Z,19.55
2018-03-09T22:23:25.324Z,18.70
2018-03-09T22:25:53.791Z,18.20
2018-03-09T22:28:21.802Z,18.50
2018-03-09T22:30:51.476Z,17.95
2018-03-09T22:33:19.512Z,17.25
2018-03-09T22:35:47.511Z,17.67
2018-03-09T22:38:15.523Z,16.12
2018-03-09T22:40:44.299Z,21.27
2018-03-09T22:43:13.263Z,17.00
2018-03-09T22:45:46.967Z,17.02
2018-03-09T22:48:14.991Z,19.02
2018-03-09T22:50:43.003Z,19.87
2018-03-09T22:53:11.007Z,17.92
2018-03-09T22:55:39.803Z,15.10
2018-03-09T22:58:09.579Z,17.23
2018-03-09T23:00:40.607Z,16.77
2018-03-09T23:03:08.607Z,17.52
2018-03-09T23:05:37.591Z,16.23
2018-03-09T23:08:05.618Z,19.08
2018-03-09T23:10:38.959Z,22.08
2018-03-09T23:13:08.083Z,17.48
2018-03-09T23:15:36.862Z,18.87
2018-03-09T23:18:14.683Z,18.40
2018-03-09T23:20:47.735Z,18.25
2018-03-09T23:23:17.531Z,17.95
2018-03-09T23:25:46.739Z,15.55
2018-03-09T23:28:14.762Z,15.85
2018-03-09T23:30:43.774Z,18.17
2018-03-09T23:33:11.868Z,21.60
2018-03-09T23:35:40.765Z,19.12
2018-03-09T23:38:08.787Z,20.42
2018-03-09T23:40:43.833Z,18.08
2018-03-09T23:43:19.755Z,17.05
2018-03-09T23:45:48.679Z,13.65
2018-03-09T23:48:19.719Z,14.45
2018-03-09T23:50:47.729Z,16.50
2018-03-09T23:53:21.934Z,19.52
2018-03-09T23:55:54.882Z,16.92
2018-03-09T23:58:30.466Z,17.30
